sensor_id;sensor_type;location;lat;lon;timestamp;P1;durP1;ratioP1;P2;durP2;ratioP2
59854;SDS011;45732;52.850;6.896;2022-11-20T00:01:42;23.88;;;16.98;;
59854;SDS011;45732;52.850;6.896;2022-11-20T00:04:08;22.65;;;16.98;;
59854;SDS011;45732;52.850;6.896;2022-11-20T00:06:35;23.55;;;16.20;;
59854;SDS011;45732;52.850;6.896;2022-11-20T00:09:01;20.38;;;14.60;;
59854;SDS011;45732;52.850;6.896;2022-11-20T00:11:27;19.52;;;13.52;;
59854;SDS011;45732;52.850;6.896;2022-11-20T00:13:54;20.63;;;14.07;;
59854;SDS011;45732;52.850;6.896;2022-11-20T00:16:26;18.88;;;13.32;;
59854;SDS011;45732;52.850;6.896;2022-11-20T00:18:53;20.40;;;13.82;;
59854;SDS011;45732;52.850;6.896;2022-11-20T00:21:20;19.05;;;13.43;;
59854;SDS011;45732;52.850;6.896;2022-11-20T00:23:50;21.42;;;13.70;;
59854;SDS011;45732;52.850;6.896;2022-11-20T00:26:18;19.15;;;13.93;;
59854;SDS011;45732;52.850;6.896;2022-11-20T00:28:48;18.77;;;13.85;;
59854;SDS011;45732;52.850;6.896;2022-11-20T00:31:16;19.52;;;14.07;;
59854;SDS011;45732;52.850;6.896;2022-11-20T00:33:42;20.55;;;13.75;;
59854;SDS011;45732;52.850;6.896;2022-11-20T00:36:13;18.55;;;13.80;;
59854;SDS011;45732;52.850;6.896;2022-11-20T00:38:38;21.15;;;14.38;;
59854;SDS011;45732;52.850;6.896;2022-11-20T00:41:05;19.10;;;13.45;;
59854;SDS011;45732;52.850;6.896;2022-11-20T00:43:32;20.08;;;13.68;;
59854;SDS011;45732;52.850;6.896;2022-11-20T00:46:02;18.58;;;13.32;;
59854;SDS011;45732;52.850;6.896;2022-11-20T00:48:33;19.90;;;13.93;;
59854;SDS011;45732;52.850;6.896;2022-11-20T00:50:59;20.83;;;13.63;;
59854;SDS011;45732;52.850;6.896;2022-11-20T00:53:25;18.63;;;13.52;;
59854;SDS011;45732;52.850;6.896;2022-11-20T00:56:01;20.55;;;14.90;;
59854;SDS011;45732;52.850;6.896;2022-11-20T00:58:34;19.25;;;13.45;;
59854;SDS011;45732;52.850;6.896;2022-11-20T01:01:03;19.38;;;13.02;;
59854;SDS011;45732;52.850;6.896;2022-11-20T01:03:35;17.83;;;12.63;;
59854;SDS011;45732;52.850;6.896;2022-11-20T01:06:03;19.20;;;13.20;;
59854;SDS011;45732;52.850;6.896;2022-11-20T01:11:01;17.95;;;12.25;;
59854;SDS011;45732;52.850;6.896;2022-11-20T01:13:29;18.60;;;13.13;;
59854;SDS011;45732;52.850;6.896;2022-11-20T01:16:06;19.63;;;13.73;;
59854;SDS011;45732;52.850;6.896;2022-11-20T01:18:32;19.02;;;13.25;;
59854;SDS011;45732;52.850;6.896;2022-11-20T01:21:03;21.02;;;13.70;;
59854;SDS011;45732;52.850;6.896;2022-11-20T01:23:34;19.00;;;12.50;;
59854;SDS011;45732;52.850;6.896;2022-11-20T01:26:02;17.85;;;13.18;;
59854;SDS011;45732;52.850;6.896;2022-11-20T01:28:29;20.10;;;13.43;;
59854;SDS011;45732;52.850;6.896;2022-11-20T01:30:55;18.08;;;13.43;;
59854;SDS011;45732;52.850;6.896;2022-11-20T01:33:20;17.48;;;13.18;;
59854;SDS011;45732;52.850;6.896;2022-11-20T01:35:46;18.67;;;13.40;;
59854;SDS011;45732;52.850;6.896;2022-11-20T01:38:12;20.25;;;13.95;;
59854;SDS011;45732;52.850;6.896;2022-11-20T01:40:37;21.67;;;14.10;;
59854;SDS011;45732;52.850;6.896;2022-11-20T01:43:14;18.60;;;13.50;;
59854;SDS011;45732;52.850;6.896;2022-11-20T01:48:13;19.38;;;14.68;;
59854;SDS011;45732;52.850;6.896;2022-11-20T01:50:39;21.15;;;13.95;;
59854;SDS011;45732;52.850;6.896;2022-11-20T01:53:07;20.10;;;13.05;;
59854;SDS011;45732;52.850;6.896;2022-11-20T01:55:41;17.95;;;12.55;;
59854;SDS011;45732;52.850;6.896;2022-11-20T01:58:11;19.30;;;13.63;;
59854;SDS011;45732;52.850;6.896;2022-11-20T02:00:38;17.48;;;13.73;;
59854;SDS011;45732;52.850;6.896;2022-11-20T02:03:10;18.67;;;13.00;;
59854;SDS011;45732;52.850;6.896;2022-11-20T02:08:40;17.30;;;13.02;;
59854;SDS011;45732;52.850;6.896;2022-11-20T02:11:05;18.23;;;13.13;;
59854;SDS011;45732;52.850;6.896;2022-11-20T02:13:31;19.05;;;12.98;;
59854;SDS011;45732;52.850;6.896;2022-11-20T02:16:15;18.63;;;12.85;;
59854;SDS011;45732;52.850;6.896;2022-11-20T02:18:42;18.05;;;12.77;;
59854;SDS011;45732;52.850;6.896;2022-11-20T02:21:12;18.25;;;12.75;;
59854;SDS011;45732;52.850;6.896;2022-11-20T02:26:31;19.30;;;13.43;;
59854;SDS011;45732;52.850;6.896;2022-11-20T02:29:03;19.75;;;12.63;;
59854;SDS011;45732;52.850;6.896;2022-11-20T02:31:29;18.25;;;13.45;;
59854;SDS011;45732;52.850;6.896;2022-11-20T02:33:59;17.95;;;13.02;;
59854;SDS011;45732;52.850;6.896;2022-11-20T02:36:26;20.15;;;13.68;;
59854;SDS011;45732;52.850;6.896;2022-11-20T02:38:53;17.85;;;13.07;;
59854;SDS011;45732;52.850;6.896;2022-11-20T02:41:19;18.25;;;12.98;;
59854;SDS011;45732;52.850;6.896;2022-11-20T02:43:45;17.35;;;13.18;;
59854;SDS011;45732;52.850;6.896;2022-11-20T02:46:11;19.60;;;13.85;;
59854;SDS011;45732;52.850;6.896;2022-11-20T02:48:36;19.83;;;13.98;;
59854;SDS011;45732;52.850;6.896;2022-11-20T02:51:02;18.55;;;13.00;;
59854;SDS011;45732;52.850;6.896;2022-11-20T02:53:28;18.13;;;13.52;;
59854;SDS011;45732;52.850;6.896;2022-11-20T02:55:53;20.13;;;12.82;;
59854;SDS011;45732;52.850;6.896;2022-11-20T02:58:19;18.33;;;12.63;;
59854;SDS011;45732;52.850;6.896;2022-11-20T03:00:45;18.75;;;13.73;;
59854;SDS011;45732;52.850;6.896;2022-11-20T03:03:10;18.90;;;13.27;;
59854;SDS011;45732;52.850;6.896;2022-11-20T03:05:36;18.70;;;12.63;;
59854;SDS011;45732;52.850;6.896;2022-11-20T03:08:02;19.92;;;13.40;;
59854;SDS011;45732;52.850;6.896;2022-11-20T03:10:27;17.88;;;13.32;;
59854;SDS011;45732;52.850;6.896;2022-11-20T03:12:53;17.77;;;13.02;;
59854;SDS011;45732;52.850;6.896;2022-11-20T03:15:20;17.75;;;12.20;;
59854;SDS011;45732;52.850;6.896;2022-11-20T03:17:52;17.58;;;12.93;;
59854;SDS011;45732;52.850;6.896;2022-11-20T03:20:19;17.83;;;12.32;;
59854;SDS011;45732;52.850;6.896;2022-11-20T03:22:45;17.25;;;12.38;;
59854;SDS011;45732;52.850;6.896;2022-11-20T03:25:10;18.33;;;12.55;;
59854;SDS011;45732;52.850;6.896;2022-11-20T03:27:36;17.15;;;11.82;;
59854;SDS011;45732;52.850;6.896;2022-11-20T03:30:02;18.75;;;12.90;;
59854;SDS011;45732;52.850;6.896;2022-11-20T03:32:28;18.33;;;12.70;;
59854;SDS011;45732;52.850;6.896;2022-11-20T03:34:54;18.48;;;12.25;;
59854;SDS011;45732;52.850;6.896;2022-11-20T03:37:20;17.25;;;12.38;;
59854;SDS011;45732;52.850;6.896;2022-11-20T03:39:45;18.20;;;12.82;;
59854;SDS011;45732;52.850;6.896;2022-11-20T03:42:11;17.67;;;12.85;;
59854;SDS011;45732;52.850;6.896;2022-11-20T03:44:55;18.38;;;13.00;;
59854;SDS011;45732;52.850;6.896;2022-11-20T03:47:21;18.65;;;12.40;;
59854;SDS011;45732;52.850;6.896;2022-11-20T03:49:47;18.73;;;12.45;;
59854;SDS011;45732;52.850;6.896;2022-11-20T03:52:12;18.15;;;12.27;;
59854;SDS011;45732;52.850;6.896;2022-11-20T03:54:38;16.90;;;12.05;;
59854;SDS011;45732;52.850;6.896;2022-11-20T03:57:04;18.70;;;12.35;;
59854;SDS011;45732;52.850;6.896;2022-11-20T03:59:29;16.83;;;12.23;;
59854;SDS011;45732;52.850;6.896;2022-11-20T04:01:55;19.33;;;13.25;;
59854;SDS011;45732;52.850;6.896;2022-11-20T04:04:21;17.35;;;12.60;;
59854;SDS011;45732;52.850;6.896;2022-11-20T04:06:46;17.25;;;12.43;;
59854;SDS011;45732;52.850;6.896;2022-11-20T04:09:12;17.67;;;12.57;;
59854;SDS011;45732;52.850;6.896;2022-11-20T04:11:39;18.55;;;13.02;;
59854;SDS011;45732;52.850;6.896;2022-11-20T04:14:06;17.25;;;12.80;;
59854;SDS011;45732;52.850;6.896;2022-11-20T04:16:37;17.48;;;12.85;;
59854;SDS011;45732;52.850;6.896;2022-11-20T04:19:04;18.33;;;12.82;;
59854;SDS011;45732;52.850;6.896;2022-11-20T04:21:31;19.13;;;12.52;;
59854;SDS011;45732;52.850;6.896;2022-11-20T04:23:57;18.70;;;12.48;;
59854;SDS011;45732;52.850;6.896;2022-11-20T04:26:24;19.60;;;13.30;;
59854;SDS011;45732;52.850;6.896;2022-11-20T04:28:51;19.45;;;13.70;;
59854;SDS011;45732;52.850;6.896;2022-11-20T04:31:21;19.10;;;13.27;;
59854;SDS011;45732;52.850;6.896;2022-11-20T04:33:49;19.58;;;12.80;;
59854;SDS011;45732;52.850;6.896;2022-11-20T04:36:25;19.60;;;12.65;;
59854;SDS011;45732;52.850;6.896;2022-11-20T04:38:52;17.67;;;13.00;;
59854;SDS011;45732;52.850;6.896;2022-11-20T04:41:23;17.92;;;12.32;;
59854;SDS011;45732;52.850;6.896;2022-11-20T04:43:51;18.42;;;12.75;;
59854;SDS011;45732;52.850;6.896;2022-11-20T04:46:23;18.02;;;12.45;;
59854;SDS011;45732;52.850;6.896;2022-11-20T04:48:49;17.55;;;12.48;;
59854;SDS011;45732;52.850;6.896;2022-11-20T04:51:15;18.13;;;12.98;;
59854;SDS011;45732;52.850;6.896;2022-11-20T04:53:41;17.50;;;12.85;;
59854;SDS011;45732;52.850;6.896;2022-11-20T04:56:08;19.38;;;12.80;;
59854;SDS011;45732;52.850;6.896;2022-11-20T04:58:35;18.52;;;12.63;;
59854;SDS011;45732;52.850;6.896;2022-11-20T05:01:02;17.05;;;12.77;;
59854;SDS011;45732;52.850;6.896;2022-11-20T05:03:29;18.45;;;12.68;;
59854;SDS011;45732;52.850;6.896;2022-11-20T05:05:55;18.58;;;13.43;;
59854;SDS011;45732;52.850;6.896;2022-11-20T05:08:21;19.60;;;13.25;;
59854;SDS011;45732;52.850;6.896;2022-11-20T05:10:47;20.20;;;13.30;;
59854;SDS011;45732;52.850;6.896;2022-11-20T05:13:12;19.13;;;12.88;;
59854;SDS011;45732;52.850;6.896;2022-11-20T05:15:38;17.77;;;12.93;;
59854;SDS011;45732;52.850;6.896;2022-11-20T05:18:03;17.48;;;12.88;;
59854;SDS011;45732;52.850;6.896;2022-11-20T05:20:29;20.33;;;13.32;;
59854;SDS011;45732;52.850;6.896;2022-11-20T05:22:58;19.20;;;13.23;;
59854;SDS011;45732;52.850;6.896;2022-11-20T05:25:24;17.13;;;12.35;;
59854;SDS011;45732;52.850;6.896;2022-11-20T05:27:50;16.55;;;12.02;;
59854;SDS011;45732;52.850;6.896;2022-11-20T05:30:15;17.00;;;12.25;;
59854;SDS011;45732;52.850;6.896;2022-11-20T05:32:41;17.80;;;12.93;;
59854;SDS011;45732;52.850;6.896;2022-11-20T05:35:07;16.52;;;12.45;;
59854;SDS011;45732;52.850;6.896;2022-11-20T05:37:33;18.15;;;12.75;;
59854;SDS011;45732;52.850;6.896;2022-11-20T05:39:58;17.25;;;12.52;;
59854;SDS011;45732;52.850;6.896;2022-11-20T05:42:24;17.90;;;12.48;;
59854;SDS011;45732;52.850;6.896;2022-11-20T05:44:59;17.30;;;12.38;;
59854;SDS011;45732;52.850;6.896;2022-11-20T05:47:30;17.85;;;12.50;;
59854;SDS011;45732;52.850;6.896;2022-11-20T05:49:58;17.35;;;13.30;;
59854;SDS011;45732;52.850;6.896;2022-11-20T05:52:24;17.10;;;13.23;;
59854;SDS011;45732;52.850;6.896;2022-11-20T05:54:49;17.95;;;13.15;;
59854;SDS011;45732;52.850;6.896;2022-11-20T05:57:15;19.02;;;12.20;;
59854;SDS011;45732;52.850;6.896;2022-11-20T05:59:41;18.70;;;13.20;;
59854;SDS011;45732;52.850;6.896;2022-11-20T06:02:07;17.15;;;12.57;;
59854;SDS011;45732;52.850;6.896;2022-11-20T06:04:33;15.57;;;11.82;;
59854;SDS011;45732;52.850;6.896;2022-11-20T06:06:59;16.55;;;12.18;;
59854;SDS011;45732;52.850;6.896;2022-11-20T06:09:24;17.38;;;12.27;;
59854;SDS011;45732;52.850;6.896;2022-11-20T06:11:50;17.10;;;12.05;;
59854;SDS011;45732;52.850;6.896;2022-11-20T06:14:15;16.58;;;12.57;;
59854;SDS011;45732;52.850;6.896;2022-11-20T06:16:41;17.98;;;12.00;;
59854;SDS011;45732;52.850;6.896;2022-11-20T06:19:07;16.63;;;11.85;;
59854;SDS011;45732;52.850;6.896;2022-11-20T06:21:32;16.63;;;11.82;;
59854;SDS011;45732;52.850;6.896;2022-11-20T06:23:58;17.98;;;11.63;;
59854;SDS011;45732;52.850;6.896;2022-11-20T06:26:24;17.50;;;12.63;;
59854;SDS011;45732;52.850;6.896;2022-11-20T06:28:52;18.52;;;12.48;;
59854;SDS011;45732;52.850;6.896;2022-11-20T06:31:19;17.95;;;12.82;;
59854;SDS011;45732;52.850;6.896;2022-11-20T06:33:47;17.92;;;11.93;;
59854;SDS011;45732;52.850;6.896;2022-11-20T06:36:13;16.35;;;11.77;;
59854;SDS011;45732;52.850;6.896;2022-11-20T06:38:40;18.38;;;12.15;;
59854;SDS011;45732;52.850;6.896;2022-11-20T06:41:10;18.50;;;12.43;;
59854;SDS011;45732;52.850;6.896;2022-11-20T06:43:38;17.25;;;12.35;;
59854;SDS011;45732;52.850;6.896;2022-11-20T06:46:03;16.10;;;11.55;;
59854;SDS011;45732;52.850;6.896;2022-11-20T06:48:29;17.63;;;12.27;;
59854;SDS011;45732;52.850;6.896;2022-11-20T06:50:55;19.38;;;12.55;;
59854;SDS011;45732;52.850;6.896;2022-11-20T06:53:21;17.05;;;11.98;;
59854;SDS011;45732;52.850;6.896;2022-11-20T06:55:48;17.23;;;11.70;;
59854;SDS011;45732;52.850;6.896;2022-11-20T06:58:15;16.88;;;11.45;;
59854;SDS011;45732;52.850;6.896;2022-11-20T07:00:41;16.98;;;11.80;;
59854;SDS011;45732;52.850;6.896;2022-11-20T07:03:08;17.17;;;11.63;;
59854;SDS011;45732;52.850;6.896;2022-11-20T07:05:35;18.88;;;11.73;;
59854;SDS011;45732;52.850;6.896;2022-11-20T07:08:01;16.80;;;11.80;;
59854;SDS011;45732;52.850;6.896;2022-11-20T07:10:27;16.95;;;11.48;;
59854;SDS011;45732;52.850;6.896;2022-11-20T07:12:53;15.38;;;11.48;;
59854;SDS011;45732;52.850;6.896;2022-11-20T07:15:19;16.13;;;11.65;;
59854;SDS011;45732;52.850;6.896;2022-11-20T07:17:46;18.67;;;12.27;;
59854;SDS011;45732;52.850;6.896;2022-11-20T07:20:12;17.27;;;12.25;;
59854;SDS011;45732;52.850;6.896;2022-11-20T07:22:38;19.08;;;12.13;;
59854;SDS011;45732;52.850;6.896;2022-11-20T07:25:04;18.48;;;12.45;;
59854;SDS011;45732;52.850;6.896;2022-11-20T07:27:31;16.67;;;11.75;;
59854;SDS011;45732;52.850;6.896;2022-11-20T07:29:56;17.17;;;12.25;;
59854;SDS011;45732;52.850;6.896;2022-11-20T07:32:22;18.15;;;12.55;;
59854;SDS011;45732;52.850;6.896;2022-11-20T07:34:48;16.52;;;12.25;;
59854;SDS011;45732;52.850;6.896;2022-11-20T07:37:14;17.77;;;12.90;;
59854;SDS011;45732;52.850;6.896;2022-11-20T07:39:40;19.05;;;12.70;;
59854;SDS011;45732;52.850;6.896;2022-11-20T07:42:07;19.67;;;13.50;;
59854;SDS011;45732;52.850;6.896;2022-11-20T07:44:33;26.65;;;16.70;;
59854;SDS011;45732;52.850;6.896;2022-11-20T07:46:59;24.83;;;16.50;;
59854;SDS011;45732;52.850;6.896;2022-11-20T07:49:24;22.10;;;15.32;;
59854;SDS011;45732;52.850;6.896;2022-11-20T07:51:50;18.08;;;12.60;;
59854;SDS011;45732;52.850;6.896;2022-11-20T07:54:18;18.00;;;12.50;;
59854;SDS011;45732;52.850;6.896;2022-11-20T07:56:45;16.25;;;11.25;;
59854;SDS011;45732;52.850;6.896;2022-11-20T07:59:11;19.13;;;13.63;;
59854;SDS011;45732;52.850;6.896;2022-11-20T08:01:37;18.08;;;12.73;;
59854;SDS011;45732;52.850;6.896;2022-11-20T08:04:03;18.10;;;12.57;;
59854;SDS011;45732;52.850;6.896;2022-11-20T08:06:29;17.90;;;11.70;;
59854;SDS011;45732;52.850;6.896;2022-11-20T08:08:55;17.83;;;12.65;;
59854;SDS011;45732;52.850;6.896;2022-11-20T08:11:21;18.00;;;11.70;;
59854;SDS011;45732;52.850;6.896;2022-11-20T08:14:05;17.42;;;12.00;;
59854;SDS011;45732;52.850;6.896;2022-11-20T08:16:37;18.52;;;12.23;;
59854;SDS011;45732;52.850;6.896;2022-11-20T08:19:03;15.60;;;11.60;;
59854;SDS011;45732;52.850;6.896;2022-11-20T08:21:29;16.70;;;12.13;;
59854;SDS011;45732;52.850;6.896;2022-11-20T08:23:56;15.98;;;11.88;;
59854;SDS011;45732;52.850;6.896;2022-11-20T08:26:23;17.48;;;12.32;;
59854;SDS011;45732;52.850;6.896;2022-11-20T08:28:52;16.70;;;11.25;;
59854;SDS011;45732;52.850;6.896;2022-11-20T08:31:19;18.08;;;12.15;;
59854;SDS011;45732;52.850;6.896;2022-11-20T08:33:45;17.27;;;11.85;;
59854;SDS011;45732;52.850;6.896;2022-11-20T08:36:11;16.58;;;11.70;;
59854;SDS011;45732;52.850;6.896;2022-11-20T08:38:36;17.42;;;12.70;;
59854;SDS011;45732;52.850;6.896;2022-11-20T08:41:03;16.33;;;12.32;;
59854;SDS011;45732;52.850;6.896;2022-11-20T08:43:47;16.27;;;12.00;;
59854;SDS011;45732;52.850;6.896;2022-11-20T08:46:13;16.80;;;11.65;;
59854;SDS011;45732;52.850;6.896;2022-11-20T08:48:39;19.52;;;12.85;;
59854;SDS011;45732;52.850;6.896;2022-11-20T08:51:05;15.65;;;11.27;;
59854;SDS011;45732;52.850;6.896;2022-11-20T08:53:31;17.38;;;12.35;;
59854;SDS011;45732;52.850;6.896;2022-11-20T08:55:59;17.58;;;11.95;;
59854;SDS011;45732;52.850;6.896;2022-11-20T08:58:25;16.70;;;11.85;;
59854;SDS011;45732;52.850;6.896;2022-11-20T09:00:51;20.45;;;12.68;;
59854;SDS011;45732;52.850;6.896;2022-11-20T09:03:17;16.73;;;12.50;;
59854;SDS011;45732;52.850;6.896;2022-11-20T09:05:43;16.85;;;12.48;;
59854;SDS011;45732;52.850;6.896;2022-11-20T09:08:08;17.77;;;12.27;;
59854;SDS011;45732;52.850;6.896;2022-11-20T09:10:34;16.27;;;12.20;;
59854;SDS011;45732;52.850;6.896;2022-11-20T09:13:01;16.85;;;12.25;;
59854;SDS011;45732;52.850;6.896;2022-11-20T09:15:27;16.42;;;12.65;;
59854;SDS011;45732;52.850;6.896;2022-11-20T09:17:56;17.70;;;12.32;;
59854;SDS011;45732;52.850;6.896;2022-11-20T09:20:24;16.65;;;11.80;;
59854;SDS011;45732;52.850;6.896;2022-11-20T09:22:50;16.88;;;12.80;;
59854;SDS011;45732;52.850;6.896;2022-11-20T09:25:16;17.80;;;12.27;;
59854;SDS011;45732;52.850;6.896;2022-11-20T09:27:42;17.42;;;12.38;;
59854;SDS011;45732;52.850;6.896;2022-11-20T09:30:10;15.93;;;11.73;;
59854;SDS011;45732;52.850;6.896;2022-11-20T09:32:38;18.83;;;12.38;;
59854;SDS011;45732;52.850;6.896;2022-11-20T09:35:04;16.52;;;11.93;;
59854;SDS011;45732;52.850;6.896;2022-11-20T09:37:30;16.88;;;11.88;;
59854;SDS011;45732;52.850;6.896;2022-11-20T09:39:56;19.10;;;12.93;;
59854;SDS011;45732;52.850;6.896;2022-11-20T09:45:23;18.67;;;12.88;;
59854;SDS011;45732;52.850;6.896;2022-11-20T09:51:12;17.65;;;12.80;;
59854;SDS011;45732;52.850;6.896;2022-11-20T09:56:37;17.50;;;11.82;;
59854;SDS011;45732;52.850;6.896;2022-11-20T09:59:07;16.75;;;12.30;;
59854;SDS011;45732;52.850;6.896;2022-11-20T10:01:47;16.15;;;11.57;;
59854;SDS011;45732;52.850;6.896;2022-11-20T10:04:15;16.67;;;11.65;;
59854;SDS011;45732;52.850;6.896;2022-11-20T10:09:32;17.08;;;11.80;;
59854;SDS011;45732;52.850;6.896;2022-11-20T10:12:05;17.85;;;11.55;;
59854;SDS011;45732;52.850;6.896;2022-11-20T10:15:27;16.85;;;12.90;;
59854;SDS011;45732;52.850;6.896;2022-11-20T10:18:09;17.45;;;11.55;;
59854;SDS011;45732;52.850;6.896;2022-11-20T10:23:32;16.75;;;11.65;;
59854;SDS011;45732;52.850;6.896;2022-11-20T10:26:03;16.98;;;11.70;;
59854;SDS011;45732;52.850;6.896;2022-11-20T10:31:51;15.52;;;11.05;;
59854;SDS011;45732;52.850;6.896;2022-11-20T10:37:08;15.88;;;11.57;;
59854;SDS011;45732;52.850;6.896;2022-11-20T10:39:42;15.57;;;11.13;;
59854;SDS011;45732;52.850;6.896;2022-11-20T10:42:20;16.15;;;12.00;;
59854;SDS011;45732;52.850;6.896;2022-11-20T10:48:25;15.98;;;11.80;;
59854;SDS011;45732;52.850;6.896;2022-11-20T11:01:18;15.68;;;12.00;;
59854;SDS011;45732;52.850;6.896;2022-11-20T11:03:48;16.45;;;11.70;;
59854;SDS011;45732;52.850;6.896;2022-11-20T11:06:25;17.38;;;12.10;;
59854;SDS011;45732;52.850;6.896;2022-11-20T11:11:33;15.85;;;11.68;;
59854;SDS011;45732;52.850;6.896;2022-11-20T11:14:06;16.08;;;11.27;;
59854;SDS011;45732;52.850;6.896;2022-11-20T11:16:40;13.73;;;10.07;;
59854;SDS011;45732;52.850;6.896;2022-11-20T11:19:14;12.05;;;8.65;;
59854;SDS011;45732;52.850;6.896;2022-11-20T11:21:47;12.30;;;8.25;;
59854;SDS011;45732;52.850;6.896;2022-11-20T11:26:53;14.20;;;10.18;;
59854;SDS011;45732;52.850;6.896;2022-11-20T11:29:22;14.98;;;11.10;;
59854;SDS011;45732;52.850;6.896;2022-11-20T11:31:48;13.27;;;10.57;;
59854;SDS011;45732;52.850;6.896;2022-11-20T11:34:15;16.02;;;10.73;;
59854;SDS011;45732;52.850;6.896;2022-11-20T11:36:42;15.02;;;10.75;;
59854;SDS011;45732;52.850;6.896;2022-11-20T11:39:20;13.45;;;9.10;;
59854;SDS011;45732;52.850;6.896;2022-11-20T11:41:46;12.75;;;9.07;;
59854;SDS011;45732;52.850;6.896;2022-11-20T11:44:17;11.70;;;8.95;;
59854;SDS011;45732;52.850;6.896;2022-11-20T11:47:03;12.70;;;8.90;;
59854;SDS011;45732;52.850;6.896;2022-11-20T11:49:33;13.52;;;9.90;;
59854;SDS011;45732;52.850;6.896;2022-11-20T11:57:00;15.65;;;11.30;;
59854;SDS011;45732;52.850;6.896;2022-11-20T12:05:03;15.88;;;12.07;;
59854;SDS011;45732;52.850;6.896;2022-11-20T12:07:53;16.38;;;12.27;;
59854;SDS011;45732;52.850;6.896;2022-11-20T12:16:05;15.85;;;11.95;;
59854;SDS011;45732;52.850;6.896;2022-11-20T12:18:35;18.33;;;12.73;;
59854;SDS011;45732;52.850;6.896;2022-11-20T12:35:27;12.40;;;8.90;;
59854;SDS011;45732;52.850;6.896;2022-11-20T12:58:16;13.32;;;8.90;;
59854;SDS011;45732;52.850;6.896;2022-11-20T13:04:07;12.43;;;8.93;;
59854;SDS011;45732;52.850;6.896;2022-11-20T13:06:34;12.10;;;8.52;;
59854;SDS011;45732;52.850;6.896;2022-11-20T13:09:00;14.05;;;9.48;;
59854;SDS011;45732;52.850;6.896;2022-11-20T13:11:37;13.27;;;8.93;;
59854;SDS011;45732;52.850;6.896;2022-11-20T13:14:44;13.95;;;9.35;;
59854;SDS011;45732;52.850;6.896;2022-11-20T13:20:12;14.65;;;8.90;;
59854;SDS011;45732;52.850;6.896;2022-11-20T13:25:09;13.45;;;9.35;;
59854;SDS011;45732;52.850;6.896;2022-11-20T13:27:35;14.98;;;8.90;;
59854;SDS011;45732;52.850;6.896;2022-11-20T13:30:13;15.77;;;10.13;;
59854;SDS011;45732;52.850;6.896;2022-11-20T13:32:55;12.95;;;9.23;;
59854;SDS011;45732;52.850;6.896;2022-11-20T13:35:35;17.13;;;9.50;;
59854;SDS011;45732;52.850;6.896;2022-11-20T13:40:39;13.45;;;10.00;;
59854;SDS011;45732;52.850;6.896;2022-11-20T13:43:37;14.75;;;9.70;;
59854;SDS011;45732;52.850;6.896;2022-11-20T13:46:06;13.98;;;10.02;;
59854;SDS011;45732;52.850;6.896;2022-11-20T13:48:42;15.43;;;10.20;;
59854;SDS011;45732;52.850;6.896;2022-11-20T13:54:10;15.00;;;10.50;;
59854;SDS011;45732;52.850;6.896;2022-11-20T13:56:47;13.23;;;10.30;;
59854;SDS011;45732;52.850;6.896;2022-11-20T14:01:56;15.13;;;10.85;;
59854;SDS011;45732;52.850;6.896;2022-11-20T14:04:26;14.38;;;10.75;;
59854;SDS011;45732;52.850;6.896;2022-11-20T14:06:58;14.57;;;10.85;;
59854;SDS011;45732;52.850;6.896;2022-11-20T14:09:31;16.13;;;11.40;;
59854;SDS011;45732;52.850;6.896;2022-11-20T14:11:59;15.60;;;11.13;;
59854;SDS011;45732;52.850;6.896;2022-11-20T14:14:25;15.23;;;11.63;;
59854;SDS011;45732;52.850;6.896;2022-11-20T14:17:07;16.95;;;12.73;;
59854;SDS011;45732;52.850;6.896;2022-11-20T14:19:42;16.38;;;12.52;;
59854;SDS011;45732;52.850;6.896;2022-11-20T14:24:49;15.88;;;12.23;;
59854;SDS011;45732;52.850;6.896;2022-11-20T14:27:29;16.63;;;13.00;;
59854;SDS011;45732;52.850;6.896;2022-11-20T14:30:00;19.20;;;13.70;;
59854;SDS011;45732;52.850;6.896;2022-11-20T14:32:28;16.73;;;13.02;;
59854;SDS011;45732;52.850;6.896;2022-11-20T14:34:55;19.58;;;14.05;;
59854;SDS011;45732;52.850;6.896;2022-11-20T14:37:28;17.85;;;13.98;;
59854;SDS011;45732;52.850;6.896;2022-11-20T14:40:01;17.35;;;13.38;;
59854;SDS011;45732;52.850;6.896;2022-11-20T14:42:28;19.05;;;14.05;;
59854;SDS011;45732;52.850;6.896;2022-11-20T14:44:57;19.05;;;14.23;;
59854;SDS011;45732;52.850;6.896;2022-11-20T14:47:25;18.83;;;14.55;;
59854;SDS011;45732;52.850;6.896;2022-11-20T14:49:54;20.02;;;13.77;;
59854;SDS011;45732;52.850;6.896;2022-11-20T14:52:22;18.85;;;14.40;;
59854;SDS011;45732;52.850;6.896;2022-11-20T14:54:51;18.75;;;13.98;;
59854;SDS011;45732;52.850;6.896;2022-11-20T14:57:27;17.85;;;14.13;;
59854;SDS011;45732;52.850;6.896;2022-11-20T15:02:30;18.50;;;14.43;;
59854;SDS011;45732;52.850;6.896;2022-11-20T15:04:56;18.98;;;14.93;;
59854;SDS011;45732;52.850;6.896;2022-11-20T15:07:25;18.25;;;13.98;;
59854;SDS011;45732;52.850;6.896;2022-11-20T15:10:27;18.92;;;14.73;;
59854;SDS011;45732;52.850;6.896;2022-11-20T15:12:59;19.17;;;14.73;;
59854;SDS011;45732;52.850;6.896;2022-11-20T15:15:50;18.92;;;14.63;;
59854;SDS011;45732;52.850;6.896;2022-11-20T15:18:28;19.88;;;14.73;;
59854;SDS011;45732;52.850;6.896;2022-11-20T15:20:56;20.60;;;14.70;;
59854;SDS011;45732;52.850;6.896;2022-11-20T15:23:25;18.98;;;14.73;;
59854;SDS011;45732;52.850;6.896;2022-11-20T15:25:52;19.48;;;14.85;;
59854;SDS011;45732;52.850;6.896;2022-11-20T15:30:49;21.15;;;15.85;;
59854;SDS011;45732;52.850;6.896;2022-11-20T15:33:15;20.38;;;15.07;;
59854;SDS011;45732;52.850;6.896;2022-11-20T15:35:42;19.25;;;14.70;;
59854;SDS011;45732;52.850;6.896;2022-11-20T15:38:09;20.13;;;15.02;;
59854;SDS011;45732;52.850;6.896;2022-11-20T15:40:34;20.40;;;15.45;;
59854;SDS011;45732;52.850;6.896;2022-11-20T15:43:00;19.35;;;15.52;;
59854;SDS011;45732;52.850;6.896;2022-11-20T15:45:33;20.92;;;15.18;;
59854;SDS011;45732;52.850;6.896;2022-11-20T15:48:02;19.15;;;15.10;;
59854;SDS011;45732;52.850;6.896;2022-11-20T15:50:39;20.98;;;15.10;;
59854;SDS011;45732;52.850;6.896;2022-11-20T15:53:17;18.33;;;14.40;;
59854;SDS011;45732;52.850;6.896;2022-11-20T15:55:43;19.73;;;15.10;;
59854;SDS011;45732;52.850;6.896;2022-11-20T15:58:10;20.60;;;15.18;;
59854;SDS011;45732;52.850;6.896;2022-11-20T16:00:36;20.17;;;15.23;;
59854;SDS011;45732;52.850;6.896;2022-11-20T16:03:02;21.95;;;15.10;;
59854;SDS011;45732;52.850;6.896;2022-11-20T16:05:28;18.63;;;14.50;;
59854;SDS011;45732;52.850;6.896;2022-11-20T16:07:54;20.30;;;15.00;;
59854;SDS011;45732;52.850;6.896;2022-11-20T16:10:20;17.92;;;14.32;;
59854;SDS011;45732;52.850;6.896;2022-11-20T16:12:47;18.08;;;14.05;;
59854;SDS011;45732;52.850;6.896;2022-11-20T16:15:31;18.67;;;13.98;;
59854;SDS011;45732;52.850;6.896;2022-11-20T16:18:21;18.60;;;13.40;;
59854;SDS011;45732;52.850;6.896;2022-11-20T16:20:49;18.15;;;14.05;;
59854;SDS011;45732;52.850;6.896;2022-11-20T16:23:17;20.23;;;14.65;;
59854;SDS011;45732;52.850;6.896;2022-11-20T16:25:43;18.40;;;14.57;;
59854;SDS011;45732;52.850;6.896;2022-11-20T16:28:10;19.42;;;14.45;;
59854;SDS011;45732;52.850;6.896;2022-11-20T16:30:36;20.38;;;14.98;;
59854;SDS011;45732;52.850;6.896;2022-11-20T16:33:03;19.35;;;14.52;;
59854;SDS011;45732;52.850;6.896;2022-11-20T16:35:29;20.92;;;15.30;;
59854;SDS011;45732;52.850;6.896;2022-11-20T16:37:56;21.77;;;15.20;;
59854;SDS011;45732;52.850;6.896;2022-11-20T16:40:23;19.67;;;15.02;;